sensor_id;sensor_type;location;lat;lon;timestamp;P1;durP1;ratioP1;P2;durP2;ratioP2
22603;SDS011;11469;49.024;8.246;2023-04-05T00:00:51;9.45;;;3.75;;
22603;SDS011;11469;49.024;8.246;2023-04-05T00:03:18;8.55;;;3.85;;
22603;SDS011;11469;49.024;8.246;2023-04-05T00:05:44;7.22;;;3.58;;
22603;SDS011;11469;49.024;8.246;2023-04-05T00:08:10;8.40;;;3.53;;
22603;SDS011;11469;49.024;8.246;2023-04-05T00:10:47;8.20;;;3.38;;
22603;SDS011;11469;49.024;8.246;2023-04-05T00:13:13;9.88;;;3.78;;
22603;SDS011;11469;49.024;8.246;2023-04-05T00:15:39;6.97;;;3.25;;
22603;SDS011;11469;49.024;8.246;2023-04-05T00:18:05;7.20;;;3.30;;
22603;SDS011;11469;49.024;8.246;2023-04-05T00:20:31;8.88;;;3.92;;
22603;SDS011;11469;49.024;8.246;2023-04-05T00:22:57;7.05;;;3.78;;
22603;SDS011;11469;49.024;8.246;2023-04-05T00:25:23;22.15;;;4.20;;
22603;SDS011;11469;49.024;8.246;2023-04-05T00:27:48;10.10;;;3.80;;
22603;SDS011;11469;49.024;8.246;2023-04-05T00:30:14;12.38;;;3.92;;
22603;SDS011;11469;49.024;8.246;2023-04-05T00:32:46;9.43;;;3.58;;
22603;SDS011;11469;49.024;8.246;2023-04-05T00:35:13;10.57;;;3.85;;
22603;SDS011;11469;49.024;8.246;2023-04-05T00:37:39;7.03;;;3.60;;
22603;SDS011;11469;49.024;8.246;2023-04-05T00:40:04;7.53;;;3.70;;
22603;SDS011;11469;49.024;8.246;2023-04-05T00:42:30;7.63;;;3.97;;
22603;SDS011;11469;49.024;8.246;2023-04-05T00:44:55;6.45;;;3.80;;
22603;SDS011;11469;49.024;8.246;2023-04-05T00:47:21;7.32;;;3.00;;
22603;SDS011;11469;49.024;8.246;2023-04-05T00:49:46;7.07;;;3.40;;
22603;SDS011;11469;49.024;8.246;2023-04-05T00:52:11;7.85;;;3.08;;
22603;SDS011;11469;49.024;8.246;2023-04-05T00:54:39;7.95;;;3.80;;
22603;SDS011;11469;49.024;8.246;2023-04-05T00:57:05;8.35;;;4.05;;
22603;SDS011;11469;49.024;8.246;2023-04-05T00:59:32;6.45;;;3.20;;
22603;SDS011;11469;49.024;8.246;2023-04-05T01:02:00;7.90;;;3.50;;
22603;SDS011;11469;49.024;8.246;2023-04-05T01:04:29;7.03;;;3.75;;
22603;SDS011;11469;49.024;8.246;2023-04-05T01:07:06;7.70;;;4.00;;
22603;SDS011;11469;49.024;8.246;2023-04-05T01:09:54;6.78;;;3.60;;
22603;SDS011;11469;49.024;8.246;2023-04-05T01:12:22;10.18;;;4.18;;
22603;SDS011;11469;49.024;8.246;2023-04-05T01:14:52;8.82;;;3.45;;
22603;SDS011;11469;49.024;8.246;2023-04-05T01:17:19;9.90;;;4.10;;
22603;SDS011;11469;49.024;8.246;2023-04-05T01:19:50;11.32;;;4.07;;
22603;SDS011;11469;49.024;8.246;2023-04-05T01:30:07;12.23;;;7.07;;
22603;SDS011;11469;49.024;8.246;2023-04-05T01:35:50;17.27;;;7.03;;
22603;SDS011;11469;49.024;8.246;2023-04-05T01:38:21;18.85;;;6.90;;
22603;SDS011;11469;49.024;8.246;2023-04-05T01:40:49;16.15;;;5.57;;
22603;SDS011;11469;49.024;8.246;2023-04-05T01:43:16;8.40;;;4.97;;
22603;SDS011;11469;49.024;8.246;2023-04-05T01:45:42;9.73;;;4.28;;
22603;SDS011;11469;49.024;8.246;2023-04-05T01:48:08;9.60;;;4.90;;
22603;SDS011;11469;49.024;8.246;2023-04-05T01:50:34;12.80;;;5.10;;
22603;SDS011;11469;49.024;8.246;2023-04-05T01:53:00;15.70;;;6.55;;
22603;SDS011;11469;49.024;8.246;2023-04-05T01:55:25;22.02;;;10.10;;
22603;SDS011;11469;49.024;8.246;2023-04-05T01:57:51;22.67;;;8.32;;
22603;SDS011;11469;49.024;8.246;2023-04-05T02:00:18;25.00;;;11.63;;
22603;SDS011;11469;49.024;8.246;2023-04-05T02:02:43;26.08;;;9.98;;
22603;SDS011;11469;49.024;8.246;2023-04-05T02:05:08;12.60;;;5.45;;
22603;SDS011;11469;49.024;8.246;2023-04-05T02:07:34;9.13;;;4.72;;
22603;SDS011;11469;49.024;8.246;2023-04-05T02:09:59;10.10;;;4.28;;
22603;SDS011;11469;49.024;8.246;2023-04-05T02:12:25;9.88;;;4.80;;
22603;SDS011;11469;49.024;8.246;2023-04-05T02:14:50;10.50;;;4.65;;
22603;SDS011;11469;49.024;8.246;2023-04-05T02:17:16;9.95;;;5.47;;
22603;SDS011;11469;49.024;8.246;2023-04-05T02:19:42;10.50;;;5.50;;
22603;SDS011;11469;49.024;8.246;2023-04-05T02:22:10;10.32;;;4.95;;
22603;SDS011;11469;49.024;8.246;2023-04-05T02:24:36;12.32;;;5.43;;
22603;SDS011;11469;49.024;8.246;2023-04-05T02:27:01;8.27;;;5.22;;
22603;SDS011;11469;49.024;8.246;2023-04-05T02:29:27;11.80;;;4.80;;
22603;SDS011;11469;49.024;8.246;2023-04-05T02:31:52;9.90;;;5.10;;
22603;SDS011;11469;49.024;8.246;2023-04-05T02:34:18;14.57;;;5.75;;
22603;SDS011;11469;49.024;8.246;2023-04-05T02:36:43;9.38;;;5.18;;
22603;SDS011;11469;49.024;8.246;2023-04-05T02:39:09;14.10;;;6.40;;
22603;SDS011;11469;49.024;8.246;2023-04-05T02:41:35;13.25;;;5.57;;
22603;SDS011;11469;49.024;8.246;2023-04-05T02:44:00;11.25;;;5.57;;
22603;SDS011;11469;49.024;8.246;2023-04-05T02:46:26;12.55;;;6.05;;
22603;SDS011;11469;49.024;8.246;2023-04-05T02:48:51;12.55;;;5.80;;
22603;SDS011;11469;49.024;8.246;2023-04-05T02:51:17;11.00;;;5.68;;
22603;SDS011;11469;49.024;8.246;2023-04-05T02:53:42;11.85;;;6.18;;
22603;SDS011;11469;49.024;8.246;2023-04-05T02:56:08;19.55;;;6.10;;
22603;SDS011;11469;49.024;8.246;2023-04-05T02:58:37;12.73;;;6.40;;
22603;SDS011;11469;49.024;8.246;2023-04-05T03:01:03;16.33;;;6.10;;
22603;SDS011;11469;49.024;8.246;2023-04-05T03:03:31;19.88;;;6.32;;
22603;SDS011;11469;49.024;8.246;2023-04-05T03:06:02;17.70;;;6.78;;
22603;SDS011;11469;49.024;8.246;2023-04-05T03:08:34;12.50;;;6.15;;
22603;SDS011;11469;49.024;8.246;2023-04-05T03:11:05;11.25;;;5.65;;
22603;SDS011;11469;49.024;8.246;2023-04-05T03:13:30;9.55;;;5.63;;
22603;SDS011;11469;49.024;8.246;2023-04-05T03:15:56;11.90;;;5.70;;
22603;SDS011;11469;49.024;8.246;2023-04-05T03:18:21;10.02;;;6.20;;
22603;SDS011;11469;49.024;8.246;2023-04-05T03:20:49;12.27;;;6.20;;
22603;SDS011;11469;49.024;8.246;2023-04-05T03:23:20;16.65;;;6.57;;
22603;SDS011;11469;49.024;8.246;2023-04-05T03:25:52;10.25;;;5.72;;
22603;SDS011;11469;49.024;8.246;2023-04-05T03:28:24;14.20;;;6.30;;
22603;SDS011;11469;49.024;8.246;2023-04-05T03:30:49;15.88;;;6.53;;
22603;SDS011;11469;49.024;8.246;2023-04-05T03:33:15;12.63;;;6.03;;
22603;SDS011;11469;49.024;8.246;2023-04-05T03:35:42;10.02;;;6.00;;
22603;SDS011;11469;49.024;8.246;2023-04-05T03:38:07;11.93;;;6.40;;
22603;SDS011;11469;49.024;8.246;2023-04-05T03:40:33;13.93;;;6.72;;
22603;SDS011;11469;49.024;8.246;2023-04-05T03:42:59;13.63;;;7.05;;
22603;SDS011;11469;49.024;8.246;2023-04-05T03:45:24;13.13;;;6.65;;
22603;SDS011;11469;49.024;8.246;2023-04-05T03:47:51;18.30;;;7.05;;
22603;SDS011;11469;49.024;8.246;2023-04-05T03:50:17;16.90;;;6.63;;
22603;SDS011;11469;49.024;8.246;2023-04-05T03:52:42;14.18;;;7.05;;
22603;SDS011;11469;49.024;8.246;2023-04-05T03:55:08;11.85;;;6.30;;
22603;SDS011;11469;49.024;8.246;2023-04-05T03:57:34;13.85;;;6.93;;
22603;SDS011;11469;49.024;8.246;2023-04-05T04:00:01;12.75;;;6.55;;
22603;SDS011;11469;49.024;8.246;2023-04-05T04:02:38;11.43;;;5.88;;
22603;SDS011;11469;49.024;8.246;2023-04-05T04:05:06;13.82;;;6.55;;
22603;SDS011;11469;49.024;8.246;2023-04-05T04:07:31;15.23;;;6.57;;
22603;SDS011;11469;49.024;8.246;2023-04-05T04:09:57;13.98;;;7.13;;
22603;SDS011;11469;49.024;8.246;2023-04-05T04:12:22;12.40;;;7.32;;
22603;SDS011;11469;49.024;8.246;2023-04-05T04:14:47;12.38;;;6.47;;
22603;SDS011;11469;49.024;8.246;2023-04-05T04:17:24;12.32;;;6.82;;
22603;SDS011;11469;49.024;8.246;2023-04-05T04:19:54;15.60;;;6.68;;
22603;SDS011;11469;49.024;8.246;2023-04-05T04:22:23;13.35;;;6.18;;
22603;SDS011;11469;49.024;8.246;2023-04-05T04:24:59;14.23;;;5.95;;
22603;SDS011;11469;49.024;8.246;2023-04-05T04:27:29;12.90;;;6.40;;
22603;SDS011;11469;49.024;8.246;2023-04-05T04:30:00;11.73;;;5.97;;
22603;SDS011;11469;49.024;8.246;2023-04-05T04:32:28;13.60;;;6.85;;
22603;SDS011;11469;49.024;8.246;2023-04-05T04:35:17;14.63;;;7.65;;
22603;SDS011;11469;49.024;8.246;2023-04-05T04:37:50;11.95;;;6.15;;
22603;SDS011;11469;49.024;8.246;2023-04-05T04:40:18;13.07;;;6.82;;
22603;SDS011;11469;49.024;8.246;2023-04-05T04:42:45;19.27;;;6.85;;
22603;SDS011;11469;49.024;8.246;2023-04-05T04:45:14;16.30;;;6.13;;
22603;SDS011;11469;49.024;8.246;2023-04-05T04:47:44;17.08;;;6.13;;
22603;SDS011;11469;49.024;8.246;2023-04-05T04:50:11;10.77;;;6.30;;
22603;SDS011;11469;49.024;8.246;2023-04-05T04:52:38;15.50;;;5.95;;
22603;SDS011;11469;49.024;8.246;2023-04-05T04:55:08;12.15;;;6.28;;
22603;SDS011;11469;49.024;8.246;2023-04-05T04:57:34;11.95;;;6.13;;
22603;SDS011;11469;49.024;8.246;2023-04-05T05:00:00;11.43;;;5.53;;
22603;SDS011;11469;49.024;8.246;2023-04-05T05:02:26;13.07;;;5.90;;
22603;SDS011;11469;49.024;8.246;2023-04-05T05:04:52;11.07;;;5.43;;
22603;SDS011;11469;49.024;8.246;2023-04-05T05:07:18;11.68;;;6.30;;
22603;SDS011;11469;49.024;8.246;2023-04-05T05:09:44;11.60;;;6.50;;
22603;SDS011;11469;49.024;8.246;2023-04-05T05:12:10;18.27;;;5.90;;
22603;SDS011;11469;49.024;8.246;2023-04-05T05:14:35;11.48;;;6.35;;
22603;SDS011;11469;49.024;8.246;2023-04-05T05:17:01;12.73;;;6.15;;
22603;SDS011;11469;49.024;8.246;2023-04-05T05:19:28;17.27;;;5.93;;
22603;SDS011;11469;49.024;8.246;2023-04-05T05:21:55;14.63;;;5.95;;
22603;SDS011;11469;49.024;8.246;2023-04-05T05:24:21;14.13;;;6.10;;
22603;SDS011;11469;49.024;8.246;2023-04-05T05:26:46;14.15;;;6.20;;
22603;SDS011;11469;49.024;8.246;2023-04-05T05:29:12;12.07;;;5.43;;
22603;SDS011;11469;49.024;8.246;2023-04-05T05:31:37;16.95;;;6.13;;
22603;SDS011;11469;49.024;8.246;2023-04-05T05:34:03;22.98;;;6.07;;
22603;SDS011;11469;49.024;8.246;2023-04-05T05:36:28;10.15;;;5.05;;
22603;SDS011;11469;49.024;8.246;2023-04-05T05:38:55;14.85;;;5.97;;
22603;SDS011;11469;49.024;8.246;2023-04-05T05:41:20;10.73;;;5.90;;
22603;SDS011;11469;49.024;8.246;2023-04-05T05:43:46;13.68;;;5.65;;
22603;SDS011;11469;49.024;8.246;2023-04-05T05:46:12;14.02;;;5.38;;
22603;SDS011;11469;49.024;8.246;2023-04-05T05:48:37;11.75;;;6.03;;
22603;SDS011;11469;49.024;8.246;2023-04-05T05:51:03;13.85;;;5.07;;
22603;SDS011;11469;49.024;8.246;2023-04-05T05:53:34;12.80;;;5.10;;
22603;SDS011;11469;49.024;8.246;2023-04-05T05:56:00;13.13;;;5.95;;
22603;SDS011;11469;49.024;8.246;2023-04-05T05:58:26;13.32;;;5.85;;
22603;SDS011;11469;49.024;8.246;2023-04-05T06:00:52;12.88;;;5.63;;
22603;SDS011;11469;49.024;8.246;2023-04-05T06:03:21;11.13;;;5.32;;
22603;SDS011;11469;49.024;8.246;2023-04-05T06:05:53;13.32;;;5.43;;
22603;SDS011;11469;49.024;8.246;2023-04-05T06:08:20;19.70;;;5.78;;
22603;SDS011;11469;49.024;8.246;2023-04-05T06:10:45;9.82;;;5.28;;
22603;SDS011;11469;49.024;8.246;2023-04-05T06:13:11;17.08;;;5.72;;
22603;SDS011;11469;49.024;8.246;2023-04-05T06:15:36;12.18;;;6.25;;
22603;SDS011;11469;49.024;8.246;2023-04-05T06:18:01;16.30;;;6.65;;
22603;SDS011;11469;49.024;8.246;2023-04-05T06:20:27;16.52;;;7.45;;
22603;SDS011;11469;49.024;8.246;2023-04-05T06:22:52;13.02;;;5.90;;
22603;SDS011;11469;49.024;8.246;2023-04-05T06:25:17;11.70;;;5.10;;
22603;SDS011;11469;49.024;8.246;2023-04-05T06:27:43;10.98;;;5.50;;
22603;SDS011;11469;49.024;8.246;2023-04-05T06:30:08;11.00;;;5.60;;
22603;SDS011;11469;49.024;8.246;2023-04-05T06:32:34;14.68;;;4.95;;
22603;SDS011;11469;49.024;8.246;2023-04-05T06:35:00;11.52;;;4.78;;
22603;SDS011;11469;49.024;8.246;2023-04-05T06:37:27;7.72;;;4.53;;
22603;SDS011;11469;49.024;8.246;2023-04-05T06:39:53;22.25;;;4.70;;
22603;SDS011;11469;49.024;8.246;2023-04-05T06:42:19;13.23;;;5.25;;
22603;SDS011;11469;49.024;8.246;2023-04-05T06:44:44;10.57;;;5.05;;
22603;SDS011;11469;49.024;8.246;2023-04-05T06:47:10;9.45;;;4.95;;
22603;SDS011;11469;49.024;8.246;2023-04-05T06:49:35;12.52;;;4.72;;
22603;SDS011;11469;49.024;8.246;2023-04-05T06:52:00;15.48;;;5.07;;
22603;SDS011;11469;49.024;8.246;2023-04-05T06:54:27;11.18;;;5.20;;
22603;SDS011;11469;49.024;8.246;2023-04-05T06:56:52;11.57;;;5.28;;
22603;SDS011;11469;49.024;8.246;2023-04-05T06:59:17;11.52;;;4.70;;
22603;SDS011;11469;49.024;8.246;2023-04-05T07:01:43;12.15;;;5.13;;
22603;SDS011;11469;49.024;8.246;2023-04-05T07:04:09;9.07;;;4.82;;
22603;SDS011;11469;49.024;8.246;2023-04-05T07:06:34;15.20;;;5.25;;
22603;SDS011;11469;49.024;8.246;2023-04-05T07:09:03;14.60;;;4.60;;
22603;SDS011;11469;49.024;8.246;2023-04-05T07:11:29;12.15;;;4.82;;
22603;SDS011;11469;49.024;8.246;2023-04-05T07:13:57;12.57;;;5.10;;
22603;SDS011;11469;49.024;8.246;2023-04-05T07:16:26;11.40;;;4.85;;
22603;SDS011;11469;49.024;8.246;2023-04-05T07:18:52;10.18;;;5.10;;
22603;SDS011;11469;49.024;8.246;2023-04-05T07:21:20;9.13;;;5.00;;
22603;SDS011;11469;49.024;8.246;2023-04-05T07:23:45;11.48;;;4.95;;
22603;SDS011;11469;49.024;8.246;2023-04-05T07:26:11;7.85;;;4.35;;
22603;SDS011;11469;49.024;8.246;2023-04-05T07:28:36;8.05;;;4.40;;
22603;SDS011;11469;49.024;8.246;2023-04-05T07:31:02;7.70;;;4.30;;
22603;SDS011;11469;49.024;8.246;2023-04-05T07:33:29;13.43;;;4.57;;
22603;SDS011;11469;49.024;8.246;2023-04-05T07:35:55;7.82;;;4.60;;
22603;SDS011;11469;49.024;8.246;2023-04-05T07:38:21;10.18;;;4.78;;
22603;SDS011;11469;49.024;8.246;2023-04-05T07:40:47;10.00;;;4.88;;
22603;SDS011;11469;49.024;8.246;2023-04-05T07:43:13;17.48;;;7.63;;
22603;SDS011;11469;49.024;8.246;2023-04-05T07:45:39;15.45;;;5.28;;
22603;SDS011;11469;49.024;8.246;2023-04-05T07:48:04;12.05;;;4.95;;
22603;SDS011;11469;49.024;8.246;2023-04-05T07:50:30;12.77;;;4.90;;
22603;SDS011;11469;49.024;8.246;2023-04-05T07:52:55;13.60;;;6.60;;
22603;SDS011;11469;49.024;8.246;2023-04-05T07:55:20;13.25;;;5.35;;
22603;SDS011;11469;49.024;8.246;2023-04-05T07:57:46;14.57;;;6.57;;
22603;SDS011;11469;49.024;8.246;2023-04-05T08:00:11;14.45;;;5.05;;
22603;SDS011;11469;49.024;8.246;2023-04-05T08:02:37;12.75;;;4.93;;
22603;SDS011;11469;49.024;8.246;2023-04-05T08:05:03;7.65;;;4.03;;
22603;SDS011;11469;49.024;8.246;2023-04-05T08:07:29;11.27;;;4.78;;
22603;SDS011;11469;49.024;8.246;2023-04-05T08:09:55;12.85;;;5.20;;
22603;SDS011;11469;49.024;8.246;2023-04-05T08:12:22;12.80;;;4.90;;
22603;SDS011;11469;49.024;8.246;2023-04-05T08:14:48;18.70;;;5.15;;
22603;SDS011;11469;49.024;8.246;2023-04-05T08:17:14;9.63;;;4.50;;
22603;SDS011;11469;49.024;8.246;2023-04-05T08:19:40;8.73;;;4.80;;
22603;SDS011;11469;49.024;8.246;2023-04-05T08:22:05;12.70;;;5.18;;
22603;SDS011;11469;49.024;8.246;2023-04-05T08:24:31;11.05;;;5.63;;
22603;SDS011;11469;49.024;8.246;2023-04-05T08:26:56;13.32;;;5.63;;
22603;SDS011;11469;49.024;8.246;2023-04-05T08:29:22;13.88;;;6.60;;
22603;SDS011;11469;49.024;8.246;2023-04-05T08:31:47;9.20;;;5.35;;
22603;SDS011;11469;49.024;8.246;2023-04-05T08:34:12;12.38;;;4.95;;
22603;SDS011;11469;49.024;8.246;2023-04-05T08:36:38;12.20;;;4.93;;
22603;SDS011;11469;49.024;8.246;2023-04-05T08:39:03;14.43;;;5.22;;
22603;SDS011;11469;49.024;8.246;2023-04-05T08:41:35;13.90;;;6.50;;
22603;SDS011;11469;49.024;8.246;2023-04-05T08:44:04;15.73;;;5.93;;
22603;SDS011;11469;49.024;8.246;2023-04-05T08:46:34;13.20;;;5.00;;
22603;SDS011;11469;49.024;8.246;2023-04-05T08:49:04;20.10;;;5.07;;
22603;SDS011;11469;49.024;8.246;2023-04-05T08:51:35;8.55;;;4.55;;
22603;SDS011;11469;49.024;8.246;2023-04-05T08:54:03;11.05;;;5.07;;
22603;SDS011;11469;49.024;8.246;2023-04-05T08:56:32;9.93;;;5.15;;
22603;SDS011;11469;49.024;8.246;2023-04-05T09:01:29;15.05;;;5.20;;
22603;SDS011;11469;49.024;8.246;2023-04-05T09:03:57;15.98;;;6.75;;
22603;SDS011;11469;49.024;8.246;2023-04-05T09:06:25;13.10;;;5.20;;
22603;SDS011;11469;49.024;8.246;2023-04-05T09:08:54;16.38;;;6.32;;
22603;SDS011;11469;49.024;8.246;2023-04-05T09:11:21;11.70;;;6.05;;
22603;SDS011;11469;49.024;8.246;2023-04-05T09:13:46;13.95;;;6.22;;
22603;SDS011;11469;49.024;8.246;2023-04-05T09:16:13;10.20;;;5.18;;
22603;SDS011;11469;49.024;8.246;2023-04-05T09:18:40;11.27;;;4.82;;
22603;SDS011;11469;49.024;8.246;2023-04-05T09:21:05;9.35;;;4.63;;
22603;SDS011;11469;49.024;8.246;2023-04-05T09:23:34;12.82;;;4.93;;
22603;SDS011;11469;49.024;8.246;2023-04-05T09:26:17;14.77;;;5.15;;
22603;SDS011;11469;49.024;8.246;2023-04-05T09:28:46;11.48;;;4.85;;
22603;SDS011;11469;49.024;8.246;2023-04-05T09:31:28;15.05;;;4.95;;
22603;SDS011;11469;49.024;8.246;2023-04-05T09:33:58;10.40;;;4.95;;
22603;SDS011;11469;49.024;8.246;2023-04-05T09:36:26;9.52;;;4.68;;
22603;SDS011;11469;49.024;8.246;2023-04-05T09:38:52;18.70;;;5.20;;
22603;SDS011;11469;49.024;8.246;2023-04-05T09:41:17;16.35;;;4.82;;
22603;SDS011;11469;49.024;8.246;2023-04-05T09:43:43;10.38;;;5.18;;
22603;SDS011;11469;49.024;8.246;2023-04-05T09:46:25;11.63;;;5.15;;
22603;SDS011;11469;49.024;8.246;2023-04-05T09:48:54;9.95;;;4.97;;
22603;SDS011;11469;49.024;8.246;2023-04-05T09:51:20;11.18;;;5.30;;
22603;SDS011;11469;49.024;8.246;2023-04-05T09:56:32;8.57;;;5.28;;
22603;SDS011;11469;49.024;8.246;2023-04-05T09:59:00;12.98;;;5.72;;
22603;SDS011;11469;49.024;8.246;2023-04-05T10:01:33;16.48;;;5.07;;
22603;SDS011;11469;49.024;8.246;2023-04-05T10:03:59;14.90;;;4.95;;
22603;SDS011;11469;49.024;8.246;2023-04-05T10:06:37;10.82;;;5.65;;
22603;SDS011;11469;49.024;8.246;2023-04-05T10:09:05;13.38;;;5.18;;
22603;SDS011;11469;49.024;8.246;2023-04-05T10:11:33;13.43;;;4.68;;
22603;SDS011;11469;49.024;8.246;2023-04-05T10:14:02;20.60;;;6.22;;
22603;SDS011;11469;49.024;8.246;2023-04-05T10:16:35;11.02;;;5.10;;
22603;SDS011;11469;49.024;8.246;2023-04-05T10:19:15;10.70;;;5.38;;
22603;SDS011;11469;49.024;8.246;2023-04-05T10:21:50;11.90;;;5.22;;
22603;SDS011;11469;49.024;8.246;2023-04-05T10:27:15;10.60;;;4.90;;
22603;SDS011;11469;49.024;8.246;2023-04-05T10:29:49;9.57;;;4.95;;
22603;SDS011;11469;49.024;8.246;2023-04-05T10:35:25;11.35;;;5.05;;
22603;SDS011;11469;49.024;8.246;2023-04-05T10:40:47;13.63;;;5.68;;
22603;SDS011;11469;49.024;8.246;2023-04-05T10:43:22;7.85;;;4.18;;
22603;SDS011;11469;49.024;8.246;2023-04-05T10:45:51;13.13;;;4.70;;
22603;SDS011;11469;49.024;8.246;2023-04-05T10:48:23;9.55;;;4.65;;
22603;SDS011;11469;49.024;8.246;2023-04-05T10:51:08;10.65;;;4.75;;
22603;SDS011;11469;49.024;8.246;2023-04-05T10:53:36;8.52;;;4.85;;
22603;SDS011;11469;49.024;8.246;2023-04-05T10:56:02;10.10;;;4.90;;
22603;SDS011;11469;49.024;8.246;2023-04-05T10:58:28;14.77;;;5.15;;
22603;SDS011;11469;49.024;8.246;2023-04-05T11:00:54;11.48;;;5.93;;
22603;SDS011;11469;49.024;8.246;2023-04-05T11:08:56;16.95;;;5.63;;
22603;SDS011;11469;49.024;8.246;2023-04-05T11:11:48;11.40;;;4.80;;
22603;SDS011;11469;49.024;8.246;2023-04-05T11:14:24;7.95;;;4.55;;
22603;SDS011;11469;49.024;8.246;2023-04-05T11:16:59;12.43;;;5.40;;
22603;SDS011;11469;49.024;8.246;2023-04-05T11:22:13;11.63;;;5.40;;
22603;SDS011;11469;49.024;8.246;2023-04-05T11:24:49;11.80;;;5.15;;
22603;SDS011;11469;49.024;8.246;2023-04-05T11:27:15;8.80;;;5.20;;
22603;SDS011;11469;49.024;8.246;2023-04-05T11:29:44;11.90;;;4.60;;
22603;SDS011;11469;49.024;8.246;2023-04-05T11:32:12;12.20;;;5.38;;
22603;SDS011;11469;49.024;8.246;2023-04-05T11:34:39;14.35;;;5.93;;
22603;SDS011;11469;49.024;8.246;2023-04-05T11:37:05;11.75;;;5.15;;
22603;SDS011;11469;49.024;8.246;2023-04-05T11:39:31;8.63;;;4.82;;
22603;SDS011;11469;49.024;8.246;2023-04-05T11:42:00;11.23;;;4.95;;
22603;SDS011;11469;49.024;8.246;2023-04-05T11:44:48;10.25;;;5.25;;
22603;SDS011;11469;49.024;8.246;2023-04-05T11:47:16;11.85;;;4.93;;
22603;SDS011;11469;49.024;8.246;2023-04-05T11:49:48;10.75;;;5.05;;
22603;SDS011;11469;49.024;8.246;2023-04-05T11:52:17;9.43;;;4.70;;
22603;SDS011;11469;49.024;8.246;2023-04-05T11:54:44;8.10;;;4.57;;
22603;SDS011;11469;49.024;8.246;2023-04-05T11:57:20;10.73;;;4.32;;
22603;SDS011;11469;49.024;8.246;2023-04-05T11:59:50;12.07;;;4.90;;
22603;SDS011;11469;49.024;8.246;2023-04-05T12:02:17;10.32;;;4.95;;
22603;SDS011;11469;49.024;8.246;2023-04-05T12:04:43;14.73;;;4.78;;
22603;SDS011;11469;49.024;8.246;2023-04-05T12:07:09;9.90;;;4.63;;
22603;SDS011;11469;49.024;8.246;2023-04-05T12:12:32;7.38;;;4.00;;
22603;SDS011;11469;49.024;8.246;2023-04-05T12:14:59;9.65;;;5.20;;
22603;SDS011;11469;49.024;8.246;2023-04-05T12:20:11;7.97;;;4.40;;
22603;SDS011;11469;49.024;8.246;2023-04-05T12:22:39;11.07;;;4.50;;
22603;SDS011;11469;49.024;8.246;2023-04-05T12:25:08;7.28;;;4.20;;
22603;SDS011;11469;49.024;8.246;2023-04-05T12:27:33;9.10;;;4.65;;
22603;SDS011;11469;49.024;8.246;2023-04-05T12:30:06;8.05;;;4.80;;
22603;SDS011;11469;49.024;8.246;2023-04-05T12:32:39;9.35;;;4.68;;
22603;SDS011;11469;49.024;8.246;2023-04-05T12:35:09;12.38;;;4.63;;
22603;SDS011;11469;49.024;8.246;2023-04-05T12:37:36;8.23;;;4.03;;
22603;SDS011;11469;49.024;8.246;2023-04-05T12:40:04;7.70;;;4.70;;
22603;SDS011;11469;49.024;8.246;2023-04-05T12:42:32;10.90;;;4.22;;
22603;SDS011;11469;49.024;8.246;2023-04-05T12:45:11;12.32;;;4.82;;
22603;SDS011;11469;49.024;8.246;2023-04-05T12:47:56;7.43;;;3.95;;
22603;SDS011;11469;49.024;8.246;2023-04-05T12:50:26;8.93;;;4.15;;
22603;SDS011;11469;49.024;8.246;2023-04-05T12:52:59;8.88;;;4.22;;
22603;SDS011;11469;49.024;8.246;2023-04-05T12:55:29;11.90;;;4.50;;
22603;SDS011;11469;49.024;8.246;2023-04-05T12:57:56;9.38;;;4.90;;
22603;SDS011;11469;49.024;8.246;2023-04-05T13:00:24;12.55;;;4.35;;
22603;SDS011;11469;49.024;8.246;2023-04-05T13:02:52;22.77;;;4.97;;
22603;SDS011;11469;49.024;8.246;2023-04-05T13:05:19;11.00;;;4.15;;
22603;SDS011;11469;49.024;8.246;2023-04-05T13:07:46;7.88;;;3.83;;
22603;SDS011;11469;49.024;8.246;2023-04-05T13:10:11;9.25;;;4.00;;
22603;SDS011;11469;49.024;8.246;2023-04-05T13:12:37;10.77;;;4.10;;
22603;SDS011;11469;49.024;8.246;2023-04-05T13:15:02;8.90;;;3.65;;
22603;SDS011;11469;49.024;8.246;2023-04-05T13:17:28;8.80;;;3.83;;
22603;SDS011;11469;49.024;8.246;2023-04-05T13:19:53;6.60;;;3.83;;
22603;SDS011;11469;49.024;8.246;2023-04-05T13:22:19;10.68;;;4.00;;
22603;SDS011;11469;49.024;8.246;2023-04-05T13:24:44;10.07;;;4.50;;
22603;SDS011;11469;49.024;8.246;2023-04-05T13:27:09;12.43;;;4.05;;
22603;SDS011;11469;49.024;8.246;2023-04-05T13:29:35;7.63;;;3.55;;
22603;SDS011;11469;49.024;8.246;2023-04-05T13:32:00;6.80;;;3.90;;
22603;SDS011;11469;49.024;8.246;2023-04-05T13:34:25;9.02;;;4.30;;
22603;SDS011;11469;49.024;8.246;2023-04-05T13:36:51;11.90;;;4.38;;
22603;SDS011;11469;49.024;8.246;2023-04-05T13:39:16;5.95;;;3.72;;
22603;SDS011;11469;49.024;8.246;2023-04-05T13:41:42;6.72;;;4.05;;
22603;SDS011;11469;49.024;8.246;2023-04-05T13:44:07;6.65;;;3.58;;
22603;SDS011;11469;49.024;8.246;2023-04-05T13:46:32;7.68;;;4.07;;
22603;SDS011;11469;49.024;8.246;2023-04-05T13:48:58;9.98;;;3.90;;
22603;SDS011;11469;49.024;8.246;2023-04-05T13:51:23;10.80;;;4.18;;
22603;SDS011;11469;49.024;8.246;2023-04-05T13:53:48;11.27;;;3.92;;
22603;SDS011;11469;49.024;8.246;2023-04-05T13:56:14;9.63;;;4.00;;
22603;SDS011;11469;49.024;8.246;2023-04-05T13:58:39;6.68;;;3.75;;
22603;SDS011;11469;49.024;8.246;2023-04-05T14:01:05;8.70;;;3.97;;
22603;SDS011;11469;49.024;8.246;2023-04-05T14:03:30;6.55;;;3.75;;
22603;SDS011;11469;49.024;8.246;2023-04-05T14:05:55;9.23;;;3.92;;
22603;SDS011;11469;49.024;8.246;2023-04-05T14:08:21;6.82;;;3.72;;
22603;SDS011;11469;49.024;8.246;2023-04-05T14:10:47;10.90;;;4.32;;
22603;SDS011;11469;49.024;8.246;2023-04-05T14:13:12;7.72;;;3.53;;
22603;SDS011;11469;49.024;8.246;2023-04-05T14:15:40;8.82;;;3.65;;
22603;SDS011;11469;49.024;8.246;2023-04-05T14:18:07;7.55;;;3.80;;
22603;SDS011;11469;49.024;8.246;2023-04-05T14:20:32;7.75;;;4.32;;
22603;SDS011;11469;49.024;8.246;2023-04-05T14:22:58;11.10;;;3.83;;
22603;SDS011;11469;49.024;8.246;2023-04-05T14:25:23;8.02;;;3.75;;
22603;SDS011;11469;49.024;8.246;2023-04-05T14:27:48;9.18;;;3.08;;
22603;SDS011;11469;49.024;8.246;2023-04-05T14:30:14;7.53;;;3.97;;
22603;SDS011;11469;49.024;8.246;2023-04-05T14:32:40;10.02;;;4.03;;
22603;SDS011;11469;49.024;8.246;2023-04-05T14:35:05;8.10;;;3.97;;
22603;SDS011;11469;49.024;8.246;2023-04-05T14:37:31;9.90;;;3.95;;
22603;SDS011;11469;49.024;8.246;2023-04-05T14:39:56;7.40;;;3.85;;
22603;SDS011;11469;49.024;8.246;2023-04-05T14:42:22;8.82;;;3.55;;
22603;SDS011;11469;49.024;8.246;2023-04-05T14:44:47;9.98;;;4.78;;
22603;SDS011;11469;49.024;8.246;2023-04-05T14:47:13;7.05;;;4.20;;
22603;SDS011;11469;49.024;8.246;2023-04-05T14:49:38;7.55;;;3.97;;
22603;SDS011;11469;49.024;8.246;2023-04-05T14:52:04;6.55;;;4.20;;
22603;SDS011;11469;49.024;8.246;2023-04-05T14:54:29;9.15;;;3.75;;
22603;SDS011;11469;49.024;8.246;2023-04-05T14:56:55;9.98;;;4.50;;
22603;SDS011;11469;49.024;8.246;2023-04-05T14:59:20;9.55;;;4.68;;
22603;SDS011;11469;49.024;8.246;2023-04-05T15:01:45;6.35;;;3.90;;
22603;SDS011;11469;49.024;8.246;2023-04-05T15:04:11;8.15;;;3.78;;
22603;SDS011;11469;49.024;8.246;2023-04-05T15:06:37;9.30;;;5.13;;
22603;SDS011;11469;49.024;8.246;2023-04-05T15:09:02;8.65;;;4.57;;
22603;SDS011;11469;49.024;8.246;2023-04-05T15:11:28;6.40;;;4.28;;
22603;SDS011;11469;49.024;8.246;2023-04-05T15:13:53;11.05;;;4.53;;
22603;SDS011;11469;49.024;8.246;2023-04-05T15:16:19;7.65;;;4.32;;
22603;SDS011;11469;49.024;8.246;2023-04-05T15:18:44;9.98;;;4.38;;